Time;durP1;ratioP1;P1;durP2;ratioP2;P2;SDS_P1;SDS_P2;PMS_P1;PMS_P2;Temp;Humidity;BMP_temperature;BMP_pressure;BME280_temperature;BME280_humidity;BME280_pressure;Samples;Min_cycle;Max_cycle;Signal;HPM_P1;HPM_P2
2023/06/01 00:01:54;;;;;;;4.05;1.90;;;;;;;;;;5022801;28;20061;-76
2023/06/01 00:04:19;;;;;;;3.58;1.90;;;;;;;;;;5024227;28;20508;-76
2023/06/01 00:06:44;;;;;;;5.05;1.77;;;;;;;;;;5023738;28;20034;-77
2023/06/01 00:09:10;;;;;;;5.95;2.20;;;;;;;;;;5007682;28;20030;-77
2023/06/01 00:11:35;;;;;;;4.72;1.83;;;;;;;;;;5024275;28;20033;-77
2023/06/01 00:14:01;;;;;;;6.18;1.73;;;;;;;;;;5025633;28;20045;-77
2023/06/01 00:16:26;;;;;;;7.10;1.63;;;;;;;;;;5024936;28;20040;-77
2023/06/01 00:18:56;;;;;;;4.30;1.60;;;;;;;;;;5023710;28;20174;-77
2023/06/01 00:21:22;;;;;;;5.07;1.75;;;;;;;;;;5025424;28;20399;-77
2023/06/01 00:23:47;;;;;;;4.68;1.73;;;;;;;;;;5022519;28;20030;-77
2023/06/01 00:26:13;;;;;;;4.55;1.98;;;;;;;;;;5025787;28;20056;-77
2023/06/01 00:28:40;;;;;;;4.20;1.83;;;;;;;;;;5004267;28;20026;-76
2023/06/01 00:31:05;;;;;;;4.55;2.10;;;;;;;;;;5024341;28;20026;-76
2023/06/01 00:33:30;;;;;;;8.95;2.30;;;;;;;;;;5022811;28;20029;-77
2023/06/01 00:35:56;;;;;;;4.30;2.13;;;;;;;;;;5025614;28;20029;-76
2023/06/01 00:38:22;;;;;;;8.15;2.28;;;;;;;;;;5022682;28;20104;-77
2023/06/01 00:40:50;;;;;;;4.93;2.10;;;;;;;;;;5025408;28;20476;-76
2023/06/01 00:43:16;;;;;;;5.35;2.33;;;;;;;;;;5022991;28;20052;-76
2023/06/01 00:45:41;;;;;;;3.60;1.80;;;;;;;;;;5024728;28;20116;-76
2023/06/01 00:48:07;;;;;;;4.97;2.05;;;;;;;;;;5022827;28;20024;-76
2023/06/01 00:50:32;;;;;;;6.38;2.47;;;;;;;;;;5006626;28;20480;-76
2023/06/01 00:52:58;;;;;;;4.32;1.98;;;;;;;;;;5004969;28;20033;-76
2023/06/01 00:55:24;;;;;;;6.95;2.65;;;;;;;;;;5006412;28;20034;-76
2023/06/01 00:57:50;;;;;;;4.65;2.05;;;;;;;;;;5021689;28;20400;-76
2023/06/01 01:00:17;;;;;;;5.40;1.98;;;;;;;;;;5021609;28;20399;-76
2023/06/01 01:02:44;;;;;;;6.68;2.30;;;;;;;;;;5023673;28;20045;-76
2023/06/01 01:05:09;;;;;;;5.35;2.22;;;;;;;;;;5005365;28;20026;-76
2023/06/01 01:07:37;;;;;;;7.68;2.45;;;;;;;;;;5023800;28;20499;-76
2023/06/01 01:10:08;;;;;;;6.43;2.38;;;;;;;;;;5004301;28;20030;-76
2023/06/01 01:12:34;;;;;;;4.82;2.30;;;;;;;;;;5007715;28;20041;-76
2023/06/01 01:15:04;;;;;;;4.80;2.40;;;;;;;;;;5003740;28;20030;-76
2023/06/01 01:17:32;;;;;;;3.83;2.13;;;;;;;;;;4999815;28;20026;-76
2023/06/01 01:20:08;;;;;;;5.60;2.90;;;;;;;;;;5016356;28;20037;-76
2023/06/01 01:22:34;;;;;;;5.28;2.53;;;;;;;;;;5005130;28;20057;-76
2023/06/01 01:25:12;;;;;;;5.75;2.30;;;;;;;;;;5006096;28;20061;-76
2023/06/01 01:27:49;;;;;;;5.88;2.40;;;;;;;;;;4991958;28;20061;-76
2023/06/01 01:30:15;;;;;;;9.60;3.88;;;;;;;;;;5004583;28;20383;-76
2023/06/01 01:32:40;;;;;;;7.72;3.50;;;;;;;;;;5005642;28;20026;-76
2023/06/01 01:35:07;;;;;;;7.07;3.10;;;;;;;;;;5022161;28;20026;-76
2023/06/01 01:37:35;;;;;;;5.43;2.38;;;;;;;;;;5006225;28;20045;-76
2023/06/01 01:40:00;;;;;;;5.03;2.45;;;;;;;;;;5003712;28;20044;-76
2023/06/01 01:42:26;;;;;;;5.88;2.90;;;;;;;;;;5024030;28;20033;-76
2023/06/01 01:44:51;;;;;;;6.60;3.10;;;;;;;;;;4987589;28;20393;-76
2023/06/01 01:47:25;;;;;;;6.35;2.40;;;;;;;;;;5024013;28;20025;-76
2023/06/01 01:49:53;;;;;;;7.03;3.10;;;;;;;;;;5017537;28;20026;-76
2023/06/01 01:52:23;;;;;;;9.35;2.75;;;;;;;;;;5006823;28;20037;-76
2023/06/01 01:54:49;;;;;;;8.95;4.10;;;;;;;;;;5005346;28;20033;-76
2023/06/01 01:57:16;;;;;;;4.65;2.63;;;;;;;;;;5004750;28;20030;-77
2023/06/01 01:59:41;;;;;;;7.03;2.20;;;;;;;;;;5004374;28;20029;-77
2023/06/01 02:02:07;;;;;;;7.75;2.80;;;;;;;;;;4985398;28;20038;-77
2023/06/01 02:04:33;;;;;;;5.60;2.78;;;;;;;;;;5021249;28;20045;-77
2023/06/01 02:06:59;;;;;;;6.03;2.50;;;;;;;;;;5005553;28;20033;-77
2023/06/01 02:09:26;;;;;;;5.57;2.35;;;;;;;;;;5003611;28;20026;-77
2023/06/01 02:11:51;;;;;;;9.35;3.15;;;;;;;;;;4989465;28;20484;-77
2023/06/01 02:14:17;;;;;;;6.88;3.13;;;;;;;;;;5005558;28;20072;-77
2023/06/01 02:16:44;;;;;;;5.15;2.38;;;;;;;;;;5003417;28;20038;-77
2023/06/01 02:19:10;;;;;;;5.65;2.60;;;;;;;;;;5021998;28;20041;-77
2023/06/01 02:21:36;;;;;;;5.78;3.10;;;;;;;;;;5020536;28;20112;-77
2023/06/01 02:24:05;;;;;;;6.93;2.75;;;;;;;;;;5005936;28;20053;-77
2023/06/01 02:26:30;;;;;;;6.55;3.10;;;;;;;;;;5013432;28;20036;-77
2023/06/01 02:28:56;;;;;;;5.72;3.03;;;;;;;;;;5020160;28;20025;-76
2023/06/01 02:31:21;;;;;;;5.22;2.67;;;;;;;;;;5002419;28;20405;-77
2023/06/01 02:33:47;;;;;;;5.97;3.20;;;;;;;;;;5020302;28;20025;-76
2023/06/01 02:36:12;;;;;;;7.65;3.10;;;;;;;;;;5005475;28;20116;-76
2023/06/01 02:38:38;;;;;;;7.25;3.50;;;;;;;;;;5002747;28;20040;-76
2023/06/01 02:41:03;;;;;;;8.30;3.45;;;;;;;;;;5022652;28;20026;-76
2023/06/01 02:43:28;;;;;;;8.23;2.90;;;;;;;;;;4999268;28;20038;-76
2023/06/01 02:45:55;;;;;;;5.45;2.78;;;;;;;;;;5009255;28;20026;-76
2023/06/01 02:48:20;;;;;;;8.88;3.78;;;;;;;;;;5022319;28;20099;-76
2023/06/01 02:50:45;;;;;;;7.28;3.05;;;;;;;;;;5001035;28;20026;-76
2023/06/01 02:53:11;;;;;;;7.13;3.17;;;;;;;;;;5004342;28;20017;-76
2023/06/01 02:55:36;;;;;;;7.32;3.00;;;;;;;;;;5004423;28;20033;-76
2023/06/01 02:58:20;;;;;;;5.72;3.03;;;;;;;;;;5015932;28;20049;-76
2023/06/01 03:01:21;;;;;;;6.00;2.70;;;;;;;;;;5001918;28;20041;-76
2023/06/01 03:03:47;;;;;;;9.00;3.10;;;;;;;;;;4986776;28;20101;-76
2023/06/01 03:06:13;;;;;;;6.32;2.83;;;;;;;;;;5004845;28;20042;-76
2023/06/01 03:09:12;;;;;;;6.25;2.85;;;;;;;;;;5000554;28;20061;-76
2023/06/01 03:11:49;;;;;;;9.23;3.30;;;;;;;;;;5001818;28;20018;-76
2023/06/01 03:14:15;;;;;;;5.90;3.10;;;;;;;;;;5005613;28;20280;-76
2023/06/01 03:16:41;;;;;;;5.10;2.42;;;;;;;;;;5001806;28;20034;-76
2023/06/01 03:19:24;;;;;;;6.45;3.00;;;;;;;;;;5002352;28;20112;-76
2023/06/01 03:21:52;;;;;;;5.82;3.25;;;;;;;;;;5004615;28;20032;-76
2023/06/01 03:24:21;;;;;;;4.93;2.70;;;;;;;;;;5001959;28;20034;-76
2023/06/01 03:26:46;;;;;;;7.22;2.78;;;;;;;;;;5011492;28;20498;-76
2023/06/01 03:29:11;;;;;;;7.32;2.85;;;;;;;;;;5004955;28;20168;-76
2023/06/01 03:31:37;;;;;;;9.57;2.75;;;;;;;;;;4999417;28;20026;-76
2023/06/01 03:34:02;;;;;;;4.07;2.53;;;;;;;;;;5021279;28;20025;-76
2023/06/01 03:36:27;;;;;;;8.57;2.92;;;;;;;;;;5001491;28;20025;-76
2023/06/01 03:38:53;;;;;;;6.78;3.20;;;;;;;;;;5013532;28;20025;-76
2023/06/01 03:41:21;;;;;;;6.72;3.20;;;;;;;;;;5005457;28;20033;-76
2023/06/01 03:43:47;;;;;;;6.45;2.92;;;;;;;;;;5002660;28;20026;-76
2023/06/01 03:46:12;;;;;;;7.35;2.97;;;;;;;;;;5005961;28;20064;-76
2023/06/01 03:48:37;;;;;;;7.40;2.70;;;;;;;;;;5002378;28;20029;-76
2023/06/01 03:51:02;;;;;;;5.40;2.90;;;;;;;;;;5021826;28;20021;-76
2023/06/01 03:53:28;;;;;;;5.65;3.05;;;;;;;;;;5002050;28;20101;-76
2023/06/01 03:55:56;;;;;;;5.35;3.05;;;;;;;;;;4993899;28;20113;-76
2023/06/01 03:58:32;;;;;;;5.72;2.70;;;;;;;;;;4997879;28;20037;-76
2023/06/01 04:00:57;;;;;;;7.82;3.28;;;;;;;;;;4997885;28;20026;-76
2023/06/01 04:03:24;;;;;;;7.40;3.33;;;;;;;;;;5000482;28;20404;-76
2023/06/01 04:05:50;;;;;;;5.35;2.80;;;;;;;;;;5018028;28;20026;-76
2023/06/01 04:08:16;;;;;;;7.68;3.17;;;;;;;;;;5020725;28;20034;-76
2023/06/01 04:10:41;;;;;;;6.63;2.97;;;;;;;;;;5016219;28;20450;-76
2023/06/01 04:13:07;;;;;;;6.50;3.15;;;;;;;;;;5005850;28;20025;-76
2023/06/01 04:15:32;;;;;;;5.95;2.72;;;;;;;;;;5020429;28;20041;-76
2023/06/01 04:17:58;;;;;;;5.00;2.70;;;;;;;;;;5004545;28;20075;-76
2023/06/01 04:20:24;;;;;;;5.60;3.30;;;;;;;;;;5000564;28;20026;-76
2023/06/01 04:22:50;;;;;;;6.32;3.10;;;;;;;;;;5005022;28;20120;-76
2023/06/01 04:25:18;;;;;;;6.60;3.88;;;;;;;;;;5001137;28;20874;-76
2023/06/01 04:27:46;;;;;;;4.88;2.83;;;;;;;;;;5002447;28;20022;-76
2023/06/01 04:30:13;;;;;;;8.18;3.45;;;;;;;;;;4991557;28;20036;-76
2023/06/01 04:32:38;;;;;;;6.65;3.10;;;;;;;;;;5021890;28;20040;-75
2023/06/01 04:35:05;;;;;;;6.95;2.95;;;;;;;;;;5005855;28;20025;-76
2023/06/01 04:37:34;;;;;;;6.05;2.70;;;;;;;;;;5006545;28;20030;-76
2023/06/01 04:40:01;;;;;;;9.55;3.13;;;;;;;;;;5004876;28;20041;-76
2023/06/01 04:42:29;;;;;;;5.18;2.80;;;;;;;;;;5005660;28;20034;-76
2023/06/01 04:44:55;;;;;;;6.00;2.92;;;;;;;;;;5006407;28;20522;-76
2023/06/01 04:47:21;;;;;;;6.00;3.13;;;;;;;;;;5003194;28;20038;-76
2023/06/01 04:49:49;;;;;;;4.82;2.60;;;;;;;;;;4990726;28;20484;-76
2023/06/01 04:52:15;;;;;;;6.70;3.13;;;;;;;;;;5021972;28;20036;-76
2023/06/01 04:54:40;;;;;;;7.65;3.53;;;;;;;;;;5005834;28;20022;-76
2023/06/01 04:57:06;;;;;;;7.70;2.80;;;;;;;;;;5019779;28;20037;-76
2023/06/01 04:59:31;;;;;;;8.18;3.15;;;;;;;;;;5004970;28;20083;-76
2023/06/01 05:01:57;;;;;;;5.80;2.90;;;;;;;;;;5007390;28;20025;-76
2023/06/01 05:04:22;;;;;;;6.50;3.20;;;;;;;;;;5020122;28;20084;-77
2023/06/01 05:06:47;;;;;;;9.07;3.38;;;;;;;;;;5021829;28;20559;-76
2023/06/01 05:09:13;;;;;;;7.07;3.53;;;;;;;;;;5007152;28;20056;-76
2023/06/01 05:11:38;;;;;;;9.13;3.35;;;;;;;;;;5002871;28;20084;-76
2023/06/01 05:14:03;;;;;;;4.80;2.72;;;;;;;;;;5005088;28;20021;-76
2023/06/01 05:16:31;;;;;;;7.15;3.63;;;;;;;;;;5009378;28;20033;-76
2023/06/01 05:18:56;;;;;;;8.13;3.47;;;;;;;;;;5020997;28;20033;-77
2023/06/01 05:21:22;;;;;;;6.88;3.60;;;;;;;;;;5004743;28;20033;-76
2023/06/01 05:23:47;;;;;;;7.95;3.90;;;;;;;;;;5006502;28;20029;-76
2023/06/01 05:26:12;;;;;;;7.18;3.53;;;;;;;;;;5006674;28;20631;-76
2023/06/01 05:28:37;;;;;;;8.25;3.47;;;;;;;;;;5004604;28;20034;-76
2023/06/01 05:31:06;;;;;;;7.47;3.45;;;;;;;;;;4999570;28;20025;-77
2023/06/01 05:33:35;;;;;;;6.82;3.42;;;;;;;;;;5020823;28;20022;-77
2023/06/01 05:36:01;;;;;;;10.32;3.38;;;;;;;;;;5005237;28;20029;-77
2023/06/01 05:38:27;;;;;;;7.07;3.50;;;;;;;;;;5006629;28;20128;-77
2023/06/01 05:40:52;;;;;;;8.77;3.53;;;;;;;;;;5005996;28;20038;-77
2023/06/01 05:43:17;;;;;;;6.75;3.00;;;;;;;;;;5003916;28;20029;-76
2023/06/01 05:45:43;;;;;;;7.07;3.30;;;;;;;;;;5005096;28;20120;-77
2023/06/01 05:48:08;;;;;;;7.72;3.65;;;;;;;;;;5008007;28;20025;-77
2023/06/01 05:50:33;;;;;;;7.85;3.95;;;;;;;;;;5004133;28;20021;-77
2023/06/01 05:52:59;;;;;;;5.15;3.60;;;;;;;;;;5006166;28;20084;-77
2023/06/01 05:55:24;;;;;;;8.90;3.53;;;;;;;;;;5003807;28;20037;-77
2023/06/01 05:57:49;;;;;;;8.23;3.88;;;;;;;;;;4989704;28;20116;-77
2023/06/01 06:00:16;;;;;;;8.07;3.63;;;;;;;;;;5000893;28;20045;-77
2023/06/01 06:02:44;;;;;;;9.07;4.07;;;;;;;;;;5020951;28;20034;-77
2023/06/01 06:05:10;;;;;;;9.15;3.88;;;;;;;;;;5024882;28;20532;-77
2023/06/01 06:07:35;;;;;;;7.93;4.10;;;;;;;;;;4991513;28;20102;-77
2023/06/01 06:10:01;;;;;;;11.45;4.18;;;;;;;;;;5021305;28;20032;-77
2023/06/01 06:12:26;;;;;;;8.85;4.68;;;;;;;;;;5006952;28;20048;-77
2023/06/01 06:14:51;;;;;;;9.63;4.07;;;;;;;;;;5021530;28;20053;-77
2023/06/01 06:17:17;;;;;;;9.95;4.40;;;;;;;;;;5024323;28;20399;-77
2023/06/01 06:19:44;;;;;;;8.15;4.18;;;;;;;;;;5021441;28;20541;-77
2023/06/01 06:22:10;;;;;;;7.80;4.40;;;;;;;;;;5019011;28;20061;-77
2023/06/01 06:24:35;;;;;;;13.65;4.40;;;;;;;;;;5024101;28;20492;-77
2023/06/01 06:27:00;;;;;;;8.35;3.88;;;;;;;;;;5023681;28;20053;-77
2023/06/01 06:29:25;;;;;;;12.07;4.47;;;;;;;;;;5021371;28;20049;-77
2023/06/01 06:31:50;;;;;;;10.65;4.72;;;;;;;;;;5021959;28;20465;-77
2023/06/01 06:34:16;;;;;;;9.48;4.22;;;;;;;;;;5024266;28;20033;-77
2023/06/01 06:36:41;;;;;;;11.15;4.45;;;;;;;;;;5003717;28;20030;-77
2023/06/01 06:39:06;;;;;;;11.18;4.57;;;;;;;;;;5022706;28;20029;-77
2023/06/01 06:41:32;;;;;;;8.65;3.75;;;;;;;;;;5004304;28;20080;-77
2023/06/01 06:43:57;;;;;;;9.70;4.88;;;;;;;;;;5021575;28;20026;-77
2023/06/01 06:46:22;;;;;;;8.82;4.72;;;;;;;;;;5023243;28;20029;-77
2023/06/01 06:48:47;;;;;;;8.68;4.25;;;;;;;;;;5020678;28;20491;-77
2023/06/01 06:51:13;;;;;;;6.38;4.28;;;;;;;;;;5022932;28;20055;-77
2023/06/01 06:53:38;;;;;;;7.13;4.35;;;;;;;;;;5022343;28;20033;-77
2023/06/01 06:56:03;;;;;;;9.27;4.28;;;;;;;;;;5004029;28;20034;-77
2023/06/01 06:58:28;;;;;;;10.48;4.25;;;;;;;;;;5023389;28;20042;-77
2023/06/01 07:00:54;;;;;;;10.15;4.65;;;;;;;;;;5001099;28;20030;-77
2023/06/01 07:03:19;;;;;;;10.20;4.32;;;;;;;;;;5021458;28;20029;-77
2023/06/01 07:05:47;;;;;;;11.45;4.82;;;;;;;;;;5022144;28;20029;-77
2023/06/01 07:08:13;;;;;;;7.88;4.75;;;;;;;;;;5004576;28;20106;-77
2023/06/01 07:10:38;;;;;;;11.60;5.00;;;;;;;;;;5020461;28;20013;-77
2023/06/01 07:13:03;;;;;;;7.97;4.30;;;;;;;;;;5004870;28;20042;-77
2023/06/01 07:15:28;;;;;;;9.95;4.18;;;;;;;;;;5021389;28;20033;-77
2023/06/01 07:17:53;;;;;;;6.25;3.50;;;;;;;;;;5022092;28;20045;-77
2023/06/01 07:20:18;;;;;;;7.95;4.55;;;;;;;;;;5021071;28;20036;-77
2023/06/01 07:22:44;;;;;;;11.18;4.03;;;;;;;;;;5020988;28;20053;-77
2023/06/01 07:25:09;;;;;;;10.43;4.38;;;;;;;;;;5004672;28;20045;-77
2023/06/01 07:27:36;;;;;;;12.48;4.65;;;;;;;;;;5021075;28;20120;-77
2023/06/01 07:30:04;;;;;;;11.07;3.88;;;;;;;;;;5004355;28;20060;-77
2023/06/01 07:32:30;;;;;;;9.90;3.83;;;;;;;;;;5006319;28;20041;-78
2023/06/01 07:34:57;;;;;;;8.90;3.90;;;;;;;;;;5023637;28;20037;-77
2023/06/01 07:37:23;;;;;;;11.70;4.05;;;;;;;;;;5024030;28;20049;-77
2023/06/01 07:39:49;;;;;;;9.35;4.10;;;;;;;;;;4990664;28;20051;-77
2023/06/01 07:42:15;;;;;;;8.50;3.80;;;;;;;;;;5006082;28;20524;-77
2023/06/01 07:44:40;;;;;;;7.68;3.33;;;;;;;;;;5016231;28;20381;-77
2023/06/01 07:47:05;;;;;;;8.45;4.10;;;;;;;;;;5021951;28;20034;-77
2023/06/01 07:49:31;;;;;;;8.10;3.72;;;;;;;;;;5020376;28;20025;-77
2023/06/01 07:51:58;;;;;;;10.20;3.75;;;;;;;;;;5021849;28;20026;-77
2023/06/01 07:54:23;;;;;;;10.93;3.90;;;;;;;;;;5024831;28;20038;-77
2023/06/01 07:56:48;;;;;;;8.93;3.38;;;;;;;;;;5023740;28;20036;-77
2023/06/01 07:59:14;;;;;;;7.88;3.75;;;;;;;;;;5021170;28;20026;-77
2023/06/01 08:01:39;;;;;;;9.20;3.78;;;;;;;;;;5020285;28;20094;-77
2023/06/01 08:04:05;;;;;;;7.20;3.90;;;;;;;;;;5011697;28;20103;-77
2023/06/01 08:06:35;;;;;;;7.32;3.70;;;;;;;;;;5027902;28;20033;-77
2023/06/01 08:09:00;;;;;;;13.55;3.63;;;;;;;;;;5025382;28;20030;-77
2023/06/01 08:11:26;;;;;;;9.27;3.92;;;;;;;;;;5025669;28;20111;-78
2023/06/01 08:13:51;;;;;;;8.93;3.85;;;;;;;;;;5025982;28;20029;-77
2023/06/01 08:16:16;;;;;;;10.57;3.92;;;;;;;;;;5025782;28;20571;-77
2023/06/01 08:18:42;;;;;;;7.70;3.25;;;;;;;;;;5026339;28;20463;-77
2023/06/01 08:21:10;;;;;;;7.32;3.42;;;;;;;;;;5026009;28;20037;-77
2023/06/01 08:23:35;;;;;;;6.25;3.22;;;;;;;;;;5026793;28;20045;-77
2023/06/01 08:26:00;;;;;;;9.40;3.08;;;;;;;;;;5006539;28;20038;-77
2023/06/01 08:28:26;;;;;;;7.25;3.05;;;;;;;;;;5023806;28;20125;-77
2023/06/01 08:30:51;;;;;;;7.40;3.40;;;;;;;;;;5007989;28;20029;-78
2023/06/01 08:33:16;;;;;;;7.68;3.28;;;;;;;;;;5024866;28;20034;-78
2023/06/01 08:35:41;;;;;;;5.60;3.30;;;;;;;;;;5026453;28;20128;-78
2023/06/01 08:38:07;;;;;;;6.55;3.30;;;;;;;;;;5006984;28;20034;-77
2023/06/01 08:40:32;;;;;;;6.32;3.08;;;;;;;;;;5026403;28;20033;-77
2023/06/01 08:42:59;;;;;;;7.78;3.33;;;;;;;;;;5024722;28;20034;-77
2023/06/01 08:45:25;;;;;;;6.43;3.53;;;;;;;;;;5025468;28;20049;-77
2023/06/01 08:47:52;;;;;;;6.85;3.22;;;;;;;;;;5026957;28;20025;-77
2023/06/01 08:50:17;;;;;;;6.32;3.42;;;;;;;;;;5021314;28;20022;-77
2023/06/01 08:52:43;;;;;;;8.52;3.40;;;;;;;;;;5023193;28;20037;-77
2023/06/01 08:55:08;;;;;;;7.15;3.13;;;;;;;;;;5023504;28;20140;-78
2023/06/01 08:57:34;;;;;;;7.50;3.22;;;;;;;;;;5026452;28;20039;-77
2023/06/01 08:59:59;;;;;;;8.67;2.97;;;;;;;;;;5022666;28;20113;-77
2023/06/01 09:02:25;;;;;;;7.50;3.53;;;;;;;;;;5021535;28;20277;-77
2023/06/01 09:04:50;;;;;;;8.55;3.83;;;;;;;;;;5026258;28;20109;-77
2023/06/01 09:07:16;;;;;;;8.40;3.40;;;;;;;;;;5005959;28;20403;-77
2023/06/01 09:09:42;;;;;;;6.07;3.15;;;;;;;;;;5026109;28;20041;-77
2023/06/01 09:12:29;;;;;;;7.45;3.67;;;;;;;;;;5023544;28;20034;-78
2023/06/01 09:15:11;;;;;;;6.95;3.05;;;;;;;;;;5019984;28;20157;-77
2023/06/01 09:17:37;;;;;;;7.97;3.60;;;;;;;;;;5023303;28;20435;-77
2023/06/01 09:20:03;;;;;;;6.93;3.35;;;;;;;;;;5006033;28;20041;-78
2023/06/01 09:22:39;;;;;;;8.40;3.63;;;;;;;;;;5025333;28;20041;-78
2023/06/01 09:25:04;;;;;;;6.78;3.42;;;;;;;;;;5007407;28;20049;-77
2023/06/01 09:27:41;;;;;;;6.95;3.45;;;;;;;;;;5006534;28;20026;-77
2023/06/01 09:30:06;;;;;;;7.63;3.10;;;;;;;;;;5025684;28;20021;-77
2023/06/01 09:32:33;;;;;;;9.07;3.63;;;;;;;;;;5006158;28;20036;-78
2023/06/01 09:34:58;;;;;;;9.20;3.90;;;;;;;;;;5024058;28;20030;-78
2023/06/01 09:37:23;;;;;;;7.77;3.00;;;;;;;;;;5024637;28;20025;-78
2023/06/01 09:39:49;;;;;;;7.53;3.37;;;;;;;;;;5023976;28;20333;-78
2023/06/01 09:42:14;;;;;;;6.43;3.25;;;;;;;;;;5024614;28;20281;-77
2023/06/01 09:44:40;;;;;;;9.25;3.60;;;;;;;;;;5006497;28;20029;-78
2023/06/01 09:47:09;;;;;;;6.60;2.90;;;;;;;;;;5023802;28;20041;-78
2023/06/01 09:49:39;;;;;;;8.88;3.63;;;;;;;;;;5004753;28;20044;-77
2023/06/01 09:52:04;;;;;;;7.38;3.50;;;;;;;;;;5008167;28;20414;-78
2023/06/01 09:54:30;;;;;;;7.85;3.90;;;;;;;;;;5004341;28;20113;-78
2023/06/01 09:56:56;;;;;;;6.20;3.70;;;;;;;;;;5022090;28;20029;-78
2023/06/01 09:59:22;;;;;;;10.40;3.83;;;;;;;;;;5007557;28;20121;-78
2023/06/01 10:01:49;;;;;;;11.65;4.13;;;;;;;;;;5001551;28;20034;-78
2023/06/01 10:04:16;;;;;;;7.20;3.65;;;;;;;;;;5024932;28;20029;-77
2023/06/01 10:06:41;;;;;;;7.03;3.88;;;;;;;;;;5024055;28;20033;-78
2023/06/01 10:09:12;;;;;;;7.00;3.90;;;;;;;;;;5002156;28;20302;-78
2023/06/01 10:11:38;;;;;;;8.33;3.77;;;;;;;;;;5003956;28;20476;-77
2023/06/01 10:14:03;;;;;;;5.90;3.30;;;;;;;;;;5006052;28;20300;-78
2023/06/01 10:16:28;;;;;;;9.20;4.28;;;;;;;;;;5023730;28;20278;-78
2023/06/01 10:18:54;;;;;;;6.80;3.60;;;;;;;;;;5023366;28;20061;-78
2023/06/01 10:21:20;;;;;;;7.35;3.50;;;;;;;;;;5023713;28;20037;-78
2023/06/01 10:23:45;;;;;;;5.85;3.83;;;;;;;;;;5024352;28;20033;-78
2023/06/01 10:26:14;;;;;;;6.50;3.50;;;;;;;;;;5005202;28;20030;-78
2023/06/01 10:28:40;;;;;;;7.93;3.60;;;;;;;;;;5021834;28;20061;-78
2023/06/01 10:31:24;;;;;;;7.78;3.40;;;;;;;;;;5004795;28;20087;-78
2023/06/01 10:33:53;;;;;;;9.02;4.05;;;;;;;;;;4996532;28;20029;-78
2023/06/01 10:36:18;;;;;;;8.10;4.32;;;;;;;;;;5023774;28;20411;-78
2023/06/01 10:38:43;;;;;;;9.02;4.38;;;;;;;;;;5023494;28;20030;-78
2023/06/01 10:41:25;;;;;;;9.13;4.75;;;;;;;;;;5022629;28;20492;-78
2023/06/01 10:43:50;;;;;;;8.13;3.90;;;;;;;;;;5003905;28;20443;-78
2023/06/01 10:46:35;;;;;;;6.53;3.63;;;;;;;;;;5004317;28;20096;-78
2023/06/01 10:49:01;;;;;;;10.18;4.28;;;;;;;;;;5021363;28;20459;-78
2023/06/01 10:51:28;;;;;;;6.47;3.28;;;;;;;;;;5025148;28;20036;-78
2023/06/01 10:53:53;;;;;;;11.20;4.00;;;;;;;;;;5000060;28;20033;-78
2023/06/01 10:56:26;;;;;;;7.13;3.67;;;;;;;;;;5007283;28;20033;-78
2023/06/01 10:59:07;;;;;;;8.63;4.55;;;;;;;;;;5018974;28;20400;-78
2023/06/01 11:01:33;;;;;;;8.40;4.18;;;;;;;;;;5020163;28;20029;-78
2023/06/01 11:03:58;;;;;;;7.97;3.70;;;;;;;;;;5007307;28;20104;-78
2023/06/01 11:06:31;;;;;;;8.05;3.70;;;;;;;;;;5020495;28;20036;-78
2023/06/01 11:09:00;;;;;;;7.00;3.30;;;;;;;;;;5018709;28;20101;-78
2023/06/01 11:11:45;;;;;;;6.53;3.47;;;;;;;;;;5006074;28;20484;-78
2023/06/01 11:14:11;;;;;;;5.95;3.30;;;;;;;;;;5017112;28;20120;-78
2023/06/01 11:16:36;;;;;;;8.30;4.00;;;;;;;;;;5023118;28;20116;-78
2023/06/01 11:19:02;;;;;;;6.10;3.40;;;;;;;;;;5006048;28;20060;-78
2023/06/01 11:21:42;;;;;;;8.07;3.67;;;;;;;;;;5021525;28;20065;-78
2023/06/01 11:24:14;;;;;;;5.05;2.60;;;;;;;;;;5022379;28;20192;-78
2023/06/01 11:26:41;;;;;;;6.95;3.63;;;;;;;;;;5006603;28;20037;-78
2023/06/01 11:29:07;;;;;;;6.10;3.65;;;;;;;;;;5022299;28;20025;-78
2023/06/01 11:31:34;;;;;;;7.70;3.55;;;;;;;;;;5015757;28;20038;-78
2023/06/01 11:34:00;;;;;;;6.70;3.30;;;;;;;;;;5006665;28;20480;-78
2023/06/01 11:36:26;;;;;;;4.72;2.80;;;;;;;;;;5003628;28;20511;-78
2023/06/01 11:38:52;;;;;;;6.93;3.10;;;;;;;;;;5022379;28;20042;-77
2023/06/01 11:41:19;;;;;;;5.72;2.97;;;;;;;;;;5023894;28;20515;-78
2023/06/01 11:43:44;;;;;;;7.22;2.80;;;;;;;;;;5006493;28;20026;-78
2023/06/01 11:46:10;;;;;;;4.23;2.73;;;;;;;;;;5009377;28;20044;-78
2023/06/01 11:48:35;;;;;;;6.93;2.60;;;;;;;;;;5025475;28;20277;-78
2023/06/01 11:51:01;;;;;;;5.53;2.90;;;;;;;;;;5026564;28;20040;-78
2023/06/01 11:53:29;;;;;;;7.47;2.80;;;;;;;;;;5009315;28;20030;-78
2023/06/01 11:55:55;;;;;;;7.25;2.63;;;;;;;;;;5026383;28;20045;-78
2023/06/01 11:58:24;;;;;;;5.30;2.67;;;;;;;;;;5026354;28;20434;-78
2023/06/01 12:00:49;;;;;;;4.97;2.40;;;;;;;;;;5026338;28;20475;-78
2023/06/01 12:03:14;;;;;;;5.50;2.50;;;;;;;;;;5025754;28;20025;-78
2023/06/01 12:05:49;;;;;;;9.10;3.88;;;;;;;;;;5008532;28;20488;-79
2023/06/01 12:08:17;;;;;;;5.50;2.60;;;;;;;;;;5020581;28;20030;-78
2023/06/01 12:10:43;;;;;;;6.82;3.00;;;;;;;;;;5024811;28;20077;-78
2023/06/01 12:13:09;;;;;;;5.45;2.70;;;;;;;;;;5026004;28;20025;-78
2023/06/01 12:15:34;;;;;;;5.03;2.70;;;;;;;;;;5007585;28;20045;-78
2023/06/01 12:17:59;;;;;;;5.55;3.08;;;;;;;;;;5027217;28;20029;-78
2023/06/01 12:20:29;;;;;;;5.85;2.92;;;;;;;;;;5023105;28;20022;-78
2023/06/01 12:22:55;;;;;;;6.85;2.58;;;;;;;;;;5025640;28;20034;-78
2023/06/01 12:25:21;;;;;;;4.55;2.67;;;;;;;;;;5025952;28;20464;-78
2023/06/01 12:27:59;;;;;;;4.45;2.20;;;;;;;;;;5004798;28;20018;-78
2023/06/01 12:30:24;;;;;;;6.88;2.92;;;;;;;;;;5023897;28;20459;-78
2023/06/01 12:32:49;;;;;;;5.85;3.58;;;;;;;;;;5026930;28;20037;-78
2023/06/01 12:35:14;;;;;;;5.33;3.13;;;;;;;;;;5024032;28;20044;-78
2023/06/01 12:37:40;;;;;;;5.32;3.00;;;;;;;;;;5023963;28;20616;-77
2023/06/01 12:40:06;;;;;;;5.28;3.15;;;;;;;;;;5007896;28;20139;-75
2023/06/01 12:42:36;;;;;;;5.85;3.05;;;;;;;;;;5021565;28;20026;-75
2023/06/01 12:45:01;;;;;;;6.05;3.35;;;;;;;;;;5024852;28;20072;-75
2023/06/01 12:47:27;;;;;;;5.30;2.70;;;;;;;;;;5022533;28;20060;-75
2023/06/01 12:50:02;;;;;;;5.77;3.00;;;;;;;;;;5019436;28;20064;-75
2023/06/01 12:52:27;;;;;;;5.25;3.58;;;;;;;;;;5008001;28;20280;-75
2023/06/01 12:54:53;;;;;;;4.80;3.17;;;;;;;;;;5023934;28;20041;-75
2023/06/01 12:57:18;;;;;;;5.55;3.00;;;;;;;;;;5025022;28;20342;-75
2023/06/01 12:59:44;;;;;;;4.07;2.80;;;;;;;;;;5025621;28;20038;-74
2023/06/01 13:02:09;;;;;;;5.88;2.42;;;;;;;;;;5021445;28;20337;-73
2023/06/01 13:04:34;;;;;;;4.43;2.80;;;;;;;;;;5022791;28;20033;-73
2023/06/01 13:07:01;;;;;;;5.30;2.87;;;;;;;;;;5024174;28;20032;-73
2023/06/01 13:09:27;;;;;;;5.38;3.08;;;;;;;;;;5021865;28;20026;-74
2023/06/01 13:11:53;;;;;;;5.65;3.08;;;;;;;;;;5024481;28;20112;-73
2023/06/01 13:14:18;;;;;;;8.30;3.35;;;;;;;;;;5021964;28;20033;-73
2023/06/01 13:16:44;;;;;;;7.93;3.53;;;;;;;;;;5025030;28;20025;-74
2023/06/01 13:19:09;;;;;;;6.40;2.92;;;;;;;;;;5021614;28;20053;-73
2023/06/01 13:21:34;;;;;;;5.10;2.37;;;;;;;;;;5020324;28;20100;-73
2023/06/01 13:24:01;;;;;;;7.00;2.93;;;;;;;;;;5024346;28;20276;-73
2023/06/01 13:26:26;;;;;;;4.57;2.70;;;;;;;;;;5021161;28;20401;-74
2023/06/01 13:28:52;;;;;;;4.32;2.70;;;;;;;;;;5020327;28;20040;-73
2023/06/01 13:31:17;;;;;;;4.78;3.00;;;;;;;;;;5014263;28;20033;-74
2023/06/01 13:33:43;;;;;;;4.00;2.75;;;;;;;;;;5019449;28;20040;-73
2023/06/01 13:36:09;;;;;;;6.38;3.67;;;;;;;;;;5021177;28;20104;-74
2023/06/01 13:38:35;;;;;;;5.93;2.50;;;;;;;;;;5018726;28;20092;-73
2023/06/01 13:41:00;;;;;;;6.75;2.80;;;;;;;;;;5023648;28;20045;-74
2023/06/01 13:43:26;;;;;;;6.60;2.72;;;;;;;;;;5021063;28;20121;-74
2023/06/01 13:45:51;;;;;;;7.93;3.15;;;;;;;;;;5018062;28;20018;-74
2023/06/01 13:48:17;;;;;;;4.35;2.80;;;;;;;;;;5023170;28;20029;-74
2023/06/01 13:50:42;;;;;;;8.73;2.65;;;;;;;;;;5021279;28;20034;-74
2023/06/01 13:53:07;;;;;;;4.85;2.80;;;;;;;;;;5023560;28;20033;-74
2023/06/01 13:55:34;;;;;;;4.75;3.00;;;;;;;;;;5004023;28;20045;-74
2023/06/01 13:57:59;;;;;;;4.30;2.55;;;;;;;;;;5022992;28;19917;-74
2023/06/01 14:00:27;;;;;;;4.55;2.72;;;;;;;;;;5018794;28;20038;-74
2023/06/01 14:02:52;;;;;;;5.05;2.80;;;;;;;;;;5017899;28;20026;-74
2023/06/01 14:05:17;;;;;;;4.27;2.63;;;;;;;;;;5022009;28;20752;-74
2023/06/01 14:07:43;;;;;;;6.93;2.93;;;;;;;;;;5021713;28;20037;-74
2023/06/01 14:10:08;;;;;;;5.40;2.80;;;;;;;;;;5022021;28;20643;-74
2023/06/01 14:12:33;;;;;;;6.00;3.08;;;;;;;;;;5022076;28;20041;-74
2023/06/01 14:14:59;;;;;;;7.85;3.42;;;;;;;;;;5020289;28;20030;-74
2023/06/01 14:17:24;;;;;;;4.43;2.70;;;;;;;;;;5022042;28;20076;-74
2023/06/01 14:19:49;;;;;;;5.27;2.63;;;;;;;;;;5021619;28;20511;-74
2023/06/01 14:22:14;;;;;;;5.32;3.08;;;;;;;;;;5022332;28;20280;-74
2023/06/01 14:24:40;;;;;;;4.87;2.90;;;;;;;;;;5022703;28;20100;-74
2023/06/01 14:27:06;;;;;;;3.92;2.50;;;;;;;;;;5021450;28;20785;-74
2023/06/01 14:29:31;;;;;;;3.65;2.60;;;;;;;;;;5019529;28;20076;-75
2023/06/01 14:31:56;;;;;;;4.50;2.65;;;;;;;;;;5020027;28;20050;-74
2023/06/01 14:34:22;;;;;;;7.40;3.27;;;;;;;;;;5003572;28;20040;-75
2023/06/01 14:36:47;;;;;;;5.80;2.87;;;;;;;;;;5023398;28;20047;-74
2023/06/01 14:39:12;;;;;;;6.05;3.10;;;;;;;;;;5019950;28;20268;-75
2023/06/01 14:41:38;;;;;;;4.10;2.92;;;;;;;;;;5022565;28;20044;-74